createdAt,value
2023-04-08T00:00:18.069Z,92.90
2023-04-08T00:02:45.327Z,92.90
2023-04-08T00:05:12.525Z,92.70
2023-04-08T00:07:39.702Z,91.80
2023-04-08T00:10:07.408Z,92.00
2023-04-08T00:12:34.858Z,92.10
2023-04-08T00:15:02.104Z,92.00
2023-04-08T00:17:29.212Z,92.20
2023-04-08T00:19:56.765Z,92.30
2023-04-08T00:22:23.894Z,92.10
2023-04-08T00:24:51.028Z,91.70
2023-04-08T00:27:18.304Z,92.20
2023-04-08T00:29:45.433Z,92.60
2023-04-08T00:32:13.344Z,93.60
2023-04-08T00:34:40.452Z,93.60
2023-04-08T00:37:07.732Z,94.20
2023-04-08T00:39:34.834Z,94.20
2023-04-08T00:42:02.088Z,95.20
2023-04-08T00:44:29.385Z,95.00
2023-04-08T00:46:56.669Z,95.40
2023-04-08T00:49:23.864Z,95.80
2023-04-08T00:51:50.961Z,95.90
2023-04-08T00:54:18.226Z,95.50
2023-04-08T00:56:45.849Z,95.40
2023-04-08T00:59:13.076Z,95.30
2023-04-08T01:02:36.733Z,94.90
2023-04-08T01:05:11.441Z,94.30
2023-04-08T01:07:45.232Z,94.30
2023-04-08T01:10:22.889Z,94.10
2023-04-08T01:12:56.632Z,94.00
2023-04-08T01:15:26.887Z,94.20
2023-04-08T01:17:56.920Z,94.60
2023-04-08T01:20:29.015Z,94.60
2023-04-08T01:23:02.225Z,95.10
2023-04-08T01:25:36.993Z,96.00
2023-04-08T01:28:13.361Z,96.70
2023-04-08T01:30:42.211Z,97.40
2023-04-08T01:33:12.536Z,98.10
2023-04-08T01:35:39.978Z,98.30
2023-04-08T01:38:10.122Z,97.80
2023-04-08T01:40:39.601Z,98.30
2023-04-08T01:43:09.110Z,98.70
2023-04-08T01:45:36.255Z,98.80
2023-04-08T01:48:04.124Z,99.30
2023-04-08T01:50:32.749Z,99.40
2023-04-08T01:53:01.232Z,99.60
2023-04-08T01:55:29.491Z,99.90
2023-04-08T01:58:01.491Z,99.70
2023-04-08T02:00:31.358Z,99.80
2023-04-08T02:03:00.232Z,99.80
2023-04-08T02:05:27.446Z,99.80
2023-04-08T02:07:54.610Z,99.90
2023-04-08T02:10:21.877Z,99.90
2023-04-08T02:12:49.130Z,99.80
2023-04-08T02:15:16.864Z,99.80
2023-04-08T02:17:50.716Z,99.80
2023-04-08T02:20:34.981Z,99.60
2023-04-08T02:23:22.717Z,99.30
2023-04-08T02:28:19.994Z,96.60
2023-04-08T02:30:52.455Z,96.20
2023-04-08T02:33:23.738Z,95.80
2023-04-08T02:35:54.818Z,96.10
2023-04-08T02:38:24.189Z,96.50
2023-04-08T02:40:51.772Z,96.60
2023-04-08T02:43:19.036Z,99.90
2023-04-08T02:45:46.582Z,99.90
2023-04-08T02:48:13.800Z,99.90
2023-04-08T02:50:41.328Z,99.90
2023-04-08T02:53:09.673Z,99.90
2023-04-08T02:55:36.821Z,99.90
2023-04-08T02:58:03.920Z,99.90
2023-04-08T03:00:31.178Z,99.90
2023-04-08T03:02:58.470Z,99.90
2023-04-08T03:05:26.901Z,99.90
2023-04-08T03:07:53.978Z,99.90
2023-04-08T03:10:21.237Z,99.90
2023-04-08T03:12:48.235Z,99.90
2023-04-08T03:15:15.465Z,99.90
2023-04-08T03:17:42.627Z,99.90
2023-04-08T03:20:10.523Z,99.90
2023-04-08T03:22:37.688Z,99.90
2023-04-08T03:25:05.116Z,99.90
2023-04-08T03:27:32.248Z,99.90
2023-04-08T03:29:59.407Z,99.90
2023-04-08T03:32:26.764Z,99.90
2023-04-08T03:34:53.992Z,99.90
2023-04-08T03:37:21.098Z,99.90
2023-04-08T03:39:48.178Z,99.90
2023-04-08T03:42:15.349Z,99.90
2023-04-08T03:44:42.478Z,99.90
2023-04-08T03:47:09.722Z,99.90
2023-04-08T03:49:36.863Z,99.90
2023-04-08T03:52:04.001Z,99.90
2023-04-08T03:54:31.118Z,99.90
2023-04-08T03:56:58.145Z,99.90
2023-04-08T03:59:25.300Z,99.90
2023-04-08T04:01:53.714Z,99.90
2023-04-08T04:04:21.387Z,99.90
2023-04-08T04:06:48.963Z,99.90
2023-04-08T04:09:17.056Z,99.90
2023-04-08T04:11:44.177Z,99.90
2023-04-08T04:14:11.331Z,99.90
2023-04-08T04:16:38.472Z,99.90
2023-04-08T04:19:05.948Z,99.90
2023-04-08T04:21:33.393Z,99.90
2023-04-08T04:24:00.621Z,99.90
2023-04-08T04:26:27.705Z,99.90
2023-04-08T04:28:54.772Z,99.90
2023-04-08T04:31:24.118Z,99.90
2023-04-08T04:33:51.168Z,99.90
2023-04-08T04:36:18.342Z,99.90
2023-04-08T04:38:46.819Z,99.90
2023-04-08T04:41:14.795Z,99.90
2023-04-08T04:43:41.931Z,99.90
2023-04-08T04:46:09.283Z,99.90
2023-04-08T04:48:36.729Z,99.90
2023-04-08T04:51:04.063Z,99.90
2023-04-08T04:53:31.898Z,99.90
2023-04-08T04:56:01.335Z,99.90
2023-04-08T04:58:28.900Z,99.90
2023-04-08T05:00:56.761Z,99.90
2023-04-08T05:03:23.978Z,99.90
2023-04-08T05:05:53.192Z,99.90
2023-04-08T05:08:20.800Z,99.90
2023-04-08T05:10:50.311Z,99.90
2023-04-08T05:13:18.568Z,99.90
2023-04-08T05:15:46.153Z,99.90
2023-04-08T05:18:13.507Z,99.90
2023-04-08T05:20:40.618Z,99.90
2023-04-08T05:23:08.154Z,99.90
2023-04-08T05:25:35.287Z,99.90
2023-04-08T05:28:04.424Z,99.90
2023-04-08T05:30:31.647Z,99.90
2023-04-08T05:33:00.638Z,99.90
2023-04-08T05:35:28.991Z,99.60
2023-04-08T05:37:56.326Z,98.60
2023-04-08T05:40:23.461Z,96.60
2023-04-08T05:42:50.563Z,96.00
2023-04-08T05:45:17.866Z,94.70
2023-04-08T05:47:45.116Z,94.20
2023-04-08T05:50:12.533Z,94.50
2023-04-08T05:52:46.245Z,94.20
2023-04-08T05:55:14.689Z,93.00
2023-04-08T05:57:41.921Z,92.60
2023-04-08T06:00:11.510Z,91.50
2023-04-08T06:02:39.307Z,90.60
2023-04-08T06:05:06.895Z,90.50
2023-04-08T06:07:34.877Z,89.60
2023-04-08T06:10:02.978Z,87.60
2023-04-08T06:12:30.223Z,85.90
2023-04-08T06:14:57.525Z,84.00
2023-04-08T06:17:24.966Z,82.80
2023-04-08T06:19:52.298Z,81.40
2023-04-08T06:22:21.795Z,80.40
2023-04-08T06:24:49.472Z,80.10
2023-04-08T06:27:16.667Z,79.20
2023-04-08T06:29:43.876Z,77.90
2023-04-08T06:32:11.732Z,78.60
2023-04-08T06:34:38.947Z,76.40
2023-04-08T06:37:06.999Z,75.30
2023-04-08T06:39:35.228Z,74.90
2023-04-08T06:42:02.966Z,73.60
2023-04-08T06:44:31.808Z,74.70
2023-04-08T06:46:58.987Z,74.60
2023-04-08T06:49:27.569Z,76.30
2023-04-08T06:51:54.927Z,77.30
2023-04-08T06:54:21.959Z,78.40
2023-04-08T06:56:49.398Z,79.50
2023-04-08T06:59:16.520Z,78.60
2023-04-08T07:01:43.823Z,78.20
2023-04-08T07:04:13.067Z,78.90
2023-04-08T07:06:40.202Z,78.60
2023-04-08T07:09:07.438Z,77.20
2023-04-08T07:11:34.540Z,75.80
2023-04-08T07:14:01.684Z,74.90
2023-04-08T07:16:28.849Z,74.30
2023-04-08T07:18:56.089Z,73.80
2023-04-08T07:21:23.277Z,73.00
2023-04-08T07:23:50.453Z,72.50
2023-04-08T07:26:17.699Z,71.70
2023-04-08T07:28:44.896Z,70.90
2023-04-08T07:31:16.981Z,71.70
2023-04-08T07:33:45.161Z,70.90
2023-04-08T07:36:13.997Z,70.90
2023-04-08T07:38:41.115Z,70.10
2023-04-08T07:41:08.259Z,69.10
2023-04-08T07:43:37.516Z,68.20
2023-04-08T07:46:06.342Z,67.70
2023-04-08T07:48:34.789Z,66.90
2023-04-08T07:51:08.815Z,66.50
2023-04-08T07:53:39.135Z,66.80
2023-04-08T07:56:16.441Z,66.40
2023-04-08T07:58:43.958Z,65.80
2023-04-08T08:01:20.135Z,65.10
2023-04-08T08:03:48.444Z,64.70
2023-04-08T08:06:16.448Z,64.90
2023-04-08T08:08:43.730Z,64.90
2023-04-08T08:11:10.954Z,64.80
2023-04-08T08:13:38.277Z,64.50
2023-04-08T08:16:09.202Z,64.10
2023-04-08T08:18:37.013Z,64.30
2023-04-08T08:21:04.359Z,63.40
2023-04-08T08:23:31.589Z,64.20
2023-04-08T08:26:07.111Z,64.20
2023-04-08T08:28:34.239Z,62.70
2023-04-08T08:31:01.379Z,62.30
2023-04-08T08:33:30.215Z,62.30
2023-04-08T08:35:58.334Z,63.00
2023-04-08T08:38:26.244Z,63.80
2023-04-08T08:40:57.512Z,65.20
2023-04-08T08:43:29.506Z,65.80
2023-04-08T08:45:56.569Z,63.00
2023-04-08T08:48:23.730Z,63.40
2023-04-08T08:50:51.348Z,64.20
2023-04-08T08:53:19.879Z,64.80
2023-04-08T08:58:17.380Z,64.60
2023-04-08T09:00:45.184Z,61.90
2023-04-08T09:03:25.987Z,62.80
2023-04-08T09:06:00.038Z,60.80
2023-04-08T09:08:32.571Z,60.90
2023-04-08T09:11:14.883Z,61.20
2023-04-08T09:13:42.669Z,60.70
2023-04-08T09:16:11.600Z,59.60
2023-04-08T09:18:39.536Z,58.50
2023-04-08T09:21:07.511Z,57.70
2023-04-08T09:23:51.895Z,58.60
2023-04-08T09:26:27.834Z,57.60
2023-04-08T09:29:24.424Z,57.20
2023-04-08T09:31:58.370Z,56.60
2023-04-08T09:34:27.573Z,55.90
2023-04-08T09:36:56.118Z,54.70
2023-04-08T09:39:23.868Z,54.40
2023-04-08T09:41:52.396Z,54.80
2023-04-08T09:44:21.670Z,54.80
2023-04-08T09:46:52.880Z,55.10
2023-04-08T09:49:34.721Z,55.60
2023-04-08T09:52:08.847Z,55.10
2023-04-08T09:55:06.791Z,55.20
2023-04-08T09:58:34.697Z,55.60
2023-04-08T10:01:03.643Z,55.70
2023-04-08T10:03:36.549Z,55.70
2023-04-08T10:06:04.065Z,56.70
2023-04-08T10:08:33.141Z,56.20
2023-04-08T10:11:00.581Z,56.70
2023-04-08T10:13:28.762Z,56.80
2023-04-08T10:16:20.043Z,56.30
2023-04-08T10:18:53.146Z,58.40
2023-04-08T10:21:33.604Z,56.30
2023-04-08T10:25:21.231Z,56.70
2023-04-08T10:27:48.811Z,56.20
2023-04-08T10:30:28.169Z,56.10
2023-04-08T10:33:02.421Z,56.50
2023-04-08T10:35:35.586Z,56.00
2023-04-08T10:38:03.629Z,57.00
2023-04-08T10:40:39.679Z,56.90
2023-04-08T10:43:06.845Z,57.30
2023-04-08T10:45:34.377Z,57.30
2023-04-08T10:48:19.621Z,57.50
2023-04-08T10:50:56.867Z,57.00
2023-04-08T10:53:31.181Z,55.60
2023-04-08T10:56:18.059Z,55.60
2023-04-08T10:58:59.334Z,56.40
2023-04-08T11:01:27.343Z,55.70
2023-04-08T11:03:54.846Z,56.10
2023-04-08T11:06:22.279Z,56.50
2023-04-08T11:08:49.401Z,58.00
2023-04-08T11:11:16.562Z,57.60
2023-04-08T11:13:53.339Z,56.90
2023-04-08T11:16:26.638Z,56.60
2023-04-08T11:18:54.649Z,57.90
2023-04-08T11:21:24.216Z,56.80
2023-04-08T11:23:52.297Z,57.70
2023-04-08T11:26:21.233Z,57.70
2023-04-08T11:28:52.127Z,56.80
2023-04-08T11:31:23.523Z,57.20
2023-04-08T11:33:56.367Z,56.70
2023-04-08T11:36:23.597Z,56.60
2023-04-08T11:38:50.856Z,56.30
2023-04-08T11:41:18.175Z,56.50
2023-04-08T11:43:56.689Z,56.00
2023-04-08T11:46:24.467Z,56.70
2023-04-08T11:49:06.783Z,55.70
2023-04-08T11:51:53.755Z,56.00
2023-04-08T11:54:32.161Z,55.50
2023-04-08T11:57:01.324Z,55.00
2023-04-08T11:59:29.795Z,55.70
2023-04-08T12:01:57.962Z,55.60
2023-04-08T12:04:25.431Z,56.10
2023-04-08T12:06:53.479Z,55.30
2023-04-08T12:09:20.706Z,55.50
2023-04-08T12:11:47.951Z,55.10
2023-04-08T12:14:15.330Z,55.30
2023-04-08T12:16:52.871Z,54.00
2023-04-08T12:19:19.999Z,55.30
2023-04-08T12:21:47.097Z,55.30
2023-04-08T12:24:20.097Z,55.70
2023-04-08T12:26:51.163Z,55.90
2023-04-08T12:29:18.339Z,54.90
2023-04-08T12:31:45.478Z,55.50
2023-04-08T12:34:12.650Z,54.80
2023-04-08T12:36:41.734Z,54.70
2023-04-08T12:39:09.182Z,55.00
2023-04-08T12:41:36.551Z,55.70
2023-04-08T12:44:06.247Z,55.70
2023-04-08T12:46:36.201Z,56.40
2023-04-08T12:49:06.739Z,56.10
2023-04-08T12:51:37.628Z,54.70
2023-04-08T12:54:07.598Z,54.50
2023-04-08T12:56:35.038Z,53.20
2023-04-08T12:59:02.231Z,53.50
2023-04-08T13:01:31.050Z,54.10
2023-04-08T13:03:58.546Z,53.50
2023-04-08T13:06:26.731Z,55.10
2023-04-08T13:08:54.272Z,54.60
2023-04-08T13:11:21.675Z,54.90
2023-04-08T13:13:48.836Z,55.80
2023-04-08T13:16:16.402Z,55.90
2023-04-08T13:18:43.601Z,54.60
2023-04-08T13:21:11.839Z,54.50
2023-04-08T13:23:39.280Z,54.00
2023-04-08T13:26:07.042Z,54.70
2023-04-08T13:28:38.702Z,54.80
2023-04-08T13:31:11.112Z,54.30
2023-04-08T13:33:38.206Z,54.40
2023-04-08T13:36:05.601Z,53.50
2023-04-08T13:38:32.738Z,54.00
2023-04-08T13:40:59.886Z,54.60
2023-04-08T13:43:27.598Z,55.60
2023-04-08T13:45:54.773Z,53.40
2023-04-08T13:48:21.898Z,54.60
2023-04-08T13:50:49.468Z,54.10
2023-04-08T13:53:17.871Z,53.30
2023-04-08T13:55:45.224Z,53.40
2023-04-08T13:58:22.934Z,55.20
2023-04-08T14:00:54.237Z,55.40
2023-04-08T14:03:21.474Z,55.40
2023-04-08T14:05:49.247Z,55.60
2023-04-08T14:08:16.690Z,55.80
2023-04-08T14:10:43.816Z,55.60
2023-04-08T14:13:11.078Z,55.60
2023-04-08T14:15:38.175Z,55.60
2023-04-08T14:18:07.196Z,55.30
2023-04-08T14:20:36.033Z,54.10
2023-04-08T14:23:03.150Z,54.80
2023-04-08T14:25:30.257Z,55.50
2023-04-08T14:27:58.897Z,54.30
2023-04-08T14:30:27.366Z,54.20
2023-04-08T14:32:54.989Z,54.80
2023-04-08T14:35:22.342Z,55.40
2023-04-08T14:37:49.408Z,55.40
2023-04-08T14:40:16.669Z,54.80
2023-04-08T14:42:45.700Z,55.50
2023-04-08T14:45:13.438Z,55.80
2023-04-08T14:47:40.625Z,57.10
2023-04-08T14:50:08.450Z,57.30
2023-04-08T14:52:35.627Z,57.60
2023-04-08T14:55:03.186Z,57.50
2023-04-08T14:57:30.258Z,57.40
2023-04-08T14:59:57.392Z,57.90
2023-04-08T15:02:24.538Z,57.10
2023-04-08T15:04:51.689Z,58.30
2023-04-08T15:07:18.841Z,58.00
2023-04-08T15:09:45.957Z,58.10
2023-04-08T15:12:13.720Z,58.50
2023-04-08T15:14:41.111Z,58.40
2023-04-08T15:17:08.963Z,58.40
2023-04-08T15:19:36.292Z,58.30
2023-04-08T15:22:03.369Z,58.40
2023-04-08T15:24:30.498Z,58.90
2023-04-08T15:26:57.718Z,59.40
2023-04-08T15:29:25.813Z,60.00
2023-04-08T15:31:52.880Z,60.00
2023-04-08T15:34:19.963Z,60.90
2023-04-08T15:36:47.720Z,60.50
2023-04-08T15:39:15.147Z,60.90
2023-04-08T15:41:42.427Z,61.30
2023-04-08T15:44:09.486Z,60.90
2023-04-08T15:46:37.859Z,61.40
2023-04-08T15:49:05.384Z,62.20
2023-04-08T15:51:34.039Z,62.00
2023-04-08T15:54:01.716Z,62.30
2023-04-08T15:56:29.925Z,62.50
2023-04-08T15:58:57.665Z,62.80
2023-04-08T16:01:24.866Z,62.40
2023-04-08T16:03:52.039Z,62.00
2023-04-08T16:06:19.338Z,62.30
2023-04-08T16:08:47.417Z,62.20
2023-04-08T16:11:14.617Z,62.20
2023-04-08T16:13:42.622Z,62.40
2023-04-08T16:16:10.098Z,62.80
2023-04-08T16:18:37.860Z,63.50
2023-04-08T16:21:08.009Z,64.00
2023-04-08T16:23:37.781Z,64.60
2023-04-08T16:26:08.170Z,65.00
2023-04-08T16:28:37.052Z,64.90
2023-04-08T16:31:04.456Z,65.10
2023-04-08T16:33:32.221Z,65.20
2023-04-08T16:36:00.676Z,66.30
2023-04-08T16:38:27.948Z,65.80
2023-04-08T16:40:58.682Z,66.10
2023-04-08T16:43:29.989Z,66.10
2023-04-08T16:45:59.449Z,66.30
2023-04-08T16:48:27.148Z,66.40
2023-04-08T16:50:54.196Z,66.50
2023-04-08T16:53:21.514Z,66.10
2023-04-08T16:55:48.767Z,66.40
2023-04-08T16:58:16.010Z,67.20
2023-04-08T17:00:43.107Z,67.00
2023-04-08T17:03:10.434Z,67.70
2023-04-08T17:05:38.737Z,68.10
2023-04-08T17:08:06.196Z,68.30
2023-04-08T17:10:33.349Z,68.80
2023-04-08T17:13:00.576Z,69.40
2023-04-08T17:15:27.842Z,69.90
2023-04-08T17:17:55.004Z,70.00
2023-04-08T17:20:22.296Z,69.70
2023-04-08T17:22:49.452Z,70.00
2023-04-08T17:25:16.565Z,70.30
2023-04-08T17:27:43.689Z,70.30
2023-04-08T17:30:11.678Z,70.70
2023-04-08T17:32:38.948Z,70.60
2023-04-08T17:35:06.435Z,71.10
2023-04-08T17:37:33.536Z,71.30
2023-04-08T17:40:00.743Z,71.50
2023-04-08T17:42:27.871Z,71.90
2023-04-08T17:44:56.137Z,71.50
2023-04-08T17:47:23.164Z,72.10
2023-04-08T17:49:50.443Z,72.00
2023-04-08T17:52:17.678Z,71.80
2023-04-08T17:54:44.727Z,71.80
2023-04-08T17:57:11.831Z,72.00
2023-04-08T17:59:38.975Z,72.80
2023-04-08T18:02:06.762Z,75.30
2023-04-08T18:04:34.205Z,73.60
2023-04-08T18:07:04.037Z,73.40
2023-04-08T18:09:31.596Z,73.40
2023-04-08T18:11:58.710Z,73.50
2023-04-08T18:14:25.877Z,74.40
2023-04-08T18:16:53.376Z,74.10
2023-04-08T18:19:20.656Z,75.20
2023-04-08T18:21:47.852Z,75.40
2023-04-08T18:24:14.972Z,75.50
2023-04-08T18:26:43.813Z,75.60
2023-04-08T18:29:11.163Z,75.80
2023-04-08T18:31:38.285Z,75.40
2023-04-08T18:34:05.751Z,75.80
2023-04-08T18:36:33.239Z,76.40
2023-04-08T18:39:02.243Z,76.50
2023-04-08T18:41:29.440Z,77.10
2023-04-08T18:43:56.858Z,77.00
2023-04-08T18:46:24.686Z,76.10
2023-04-08T18:48:51.814Z,76.10
2023-04-08T18:51:19.095Z,75.80
2023-04-08T18:53:46.447Z,77.50
2023-04-08T18:56:17.550Z,78.10
2023-04-08T18:58:47.040Z,77.20
2023-04-08T19:01:14.964Z,77.30
2023-04-08T19:03:43.932Z,77.50
2023-04-08T19:06:13.019Z,77.40
2023-04-08T19:08:40.486Z,76.50
2023-04-08T19:11:10.055Z,76.90
2023-04-08T19:13:37.572Z,77.10
2023-04-08T19:16:05.168Z,77.90
2023-04-08T19:18:32.286Z,78.50
2023-04-08T19:21:01.258Z,77.50
2023-04-08T19:23:28.741Z,78.50
2023-04-08T19:25:58.126Z,77.80
2023-04-08T19:28:26.670Z,78.30
2023-04-08T19:30:54.507Z,78.90
2023-04-08T19:33:21.906Z,79.10
2023-04-08T19:35:49.914Z,80.50
2023-04-08T19:38:16.992Z,82.80
2023-04-08T19:40:44.170Z,85.50
2023-04-08T19:43:11.717Z,88.80
2023-04-08T19:45:38.864Z,91.30
2023-04-08T19:48:06.609Z,93.20
2023-04-08T19:50:39.971Z,94.40
2023-04-08T19:53:07.091Z,95.60
2023-04-08T19:55:37.471Z,97.10
2023-04-08T19:58:05.348Z,98.30
2023-04-08T20:00:32.807Z,99.70
2023-04-08T20:03:00.261Z,99.90
2023-04-08T20:05:27.544Z,99.90
2023-04-08T20:07:54.707Z,99.90
2023-04-08T20:10:22.008Z,99.90
2023-04-08T20:12:49.267Z,99.90
2023-04-08T20:15:24.743Z,99.90
2023-04-08T20:17:56.966Z,99.90
2023-04-08T20:20:28.958Z,99.90
2023-04-08T20:22:57.424Z,99.90
2023-04-08T20:25:26.817Z,99.90
2023-04-08T20:27:54.951Z,99.90
2023-04-08T20:30:23.724Z,99.90
2023-04-08T20:32:54.305Z,99.90
2023-04-08T20:35:23.943Z,99.90
2023-04-08T20:37:52.749Z,99.90
2023-04-08T20:40:22.097Z,99.90
2023-04-08T20:42:52.282Z,99.90
2023-04-08T20:45:20.449Z,99.90
2023-04-08T20:47:51.898Z,99.90
2023-04-08T20:50:22.963Z,99.90
2023-04-08T20:52:50.865Z,99.90
2023-04-08T20:55:21.941Z,99.90
2023-04-08T20:57:50.461Z,99.90
2023-04-08T21:00:21.304Z,99.90
2023-04-08T21:02:50.489Z,99.90
2023-04-08T21:05:17.812Z,99.90
2023-04-08T21:07:45.037Z,99.90
2023-04-08T21:10:14.954Z,99.90
2023-04-08T21:12:48.174Z,99.90
2023-04-08T21:15:15.596Z,99.90
2023-04-08T21:17:43.538Z,99.90
2023-04-08T21:20:11.558Z,99.90
2023-04-08T21:22:42.296Z,99.90
2023-04-08T21:25:09.857Z,99.90
2023-04-08T21:27:37.818Z,99.90
2023-04-08T21:30:07.101Z,99.90
2023-04-08T21:32:36.997Z,99.90
2023-04-08T21:35:04.212Z,99.90
2023-04-08T21:37:31.386Z,99.90
2023-04-08T21:39:58.438Z,99.90
2023-04-08T21:42:26.629Z,99.90
2023-04-08T21:44:53.872Z,99.90
2023-04-08T21:47:20.953Z,99.90
2023-04-08T21:49:49.111Z,99.90
2023-04-08T21:52:16.611Z,99.90
2023-04-08T21:54:43.954Z,99.90
2023-04-08T21:57:11.359Z,99.90
2023-04-08T21:59:38.479Z,99.90
2023-04-08T22:02:05.619Z,99.90
2023-04-08T22:04:32.709Z,99.90
2023-04-08T22:06:59.812Z,99.90
2023-04-08T22:09:27.266Z,99.90
2023-04-08T22:11:54.539Z,99.90
2023-04-08T22:14:21.782Z,99.90
2023-04-08T22:16:48.881Z,99.90
2023-04-08T22:19:16.013Z,99.90
2023-04-08T22:21:43.410Z,99.90
2023-04-08T22:24:10.592Z,99.90
2023-04-08T22:26:37.749Z,99.90
2023-04-08T22:29:05.852Z,99.90
2023-04-08T22:31:32.925Z,99.90
2023-04-08T22:34:01.423Z,99.90
2023-04-08T22:36:28.672Z,99.90
2023-04-08T22:38:56.028Z,99.90
2023-04-08T22:41:24.046Z,99.90
2023-04-08T22:43:51.510Z,99.90
2023-04-08T22:46:20.230Z,99.90
2023-04-08T22:48:49.568Z,99.90
2023-04-08T22:51:17.186Z,99.90
2023-04-08T22:53:44.346Z,99.90
2023-04-08T22:56:11.605Z,99.90
2023-04-08T22:58:39.466Z,99.90
2023-04-08T23:01:22.881Z,99.90
2023-04-08T23:03:50.213Z,99.90
2023-04-08T23:06:17.640Z,99.90
2023-04-08T23:08:44.773Z,99.90
2023-04-08T23:11:11.811Z,99.90
2023-04-08T23:13:38.942Z,99.90
2023-04-08T23:16:07.513Z,99.90
2023-04-08T23:18:34.594Z,99.90
2023-04-08T23:21:01.763Z,99.90
2023-04-08T23:23:29.126Z,99.90
2023-04-08T23:25:56.348Z,99.90
2023-04-08T23:28:24.367Z,99.90
2023-04-08T23:30:51.603Z,99.90
2023-04-08T23:33:21.676Z,99.90
2023-04-08T23:35:49.826Z,99.90
2023-04-08T23:38:17.370Z,99.90
2023-04-08T23:40:44.446Z,99.90
2023-04-08T23:43:13.713Z,99.90
2023-04-08T23:45:42.104Z,99.90
2023-04-08T23:48:10.311Z,99.90
2023-04-08T23:50:37.967Z,99.90
2023-04-08T23:53:05.141Z,99.90
2023-04-08T23:55:32.203Z,99.90
2023-04-08T23:57:59.855Z,99.90
